sensor_id;sensor_type;location;lat;lon;timestamp;temperature;humidity
4306;DHT22;2166;49.926;8.608;2023-02-01T00:00:35;5.40;83.80
4306;DHT22;2166;49.926;8.608;2023-02-01T00:03:03;5.40;83.70
4306;DHT22;2166;49.926;8.608;2023-02-01T00:05:34;5.40;83.70
4306;DHT22;2166;49.926;8.608;2023-02-01T00:08:03;5.40;83.70
4306;DHT22;2166;49.926;8.608;2023-02-01T00:10:32;5.40;83.70
4306;DHT22;2166;49.926;8.608;2023-02-01T00:13:04;5.40;83.80
4306;DHT22;2166;49.926;8.608;2023-02-01T00:15:33;5.30;83.70
4306;DHT22;2166;49.926;8.608;2023-02-01T00:18:03;5.30;83.80
4306;DHT22;2166;49.926;8.608;2023-02-01T00:20:40;5.30;83.70
4306;DHT22;2166;49.926;8.608;2023-02-01T00:23:13;5.30;83.70
4306;DHT22;2166;49.926;8.608;2023-02-01T00:25:43;5.40;83.80
4306;DHT22;2166;49.926;8.608;2023-02-01T00:28:13;5.40;83.80
4306;DHT22;2166;49.926;8.608;2023-02-01T00:30:42;5.40;83.80
4306;DHT22;2166;49.926;8.608;2023-02-01T00:33:12;5.40;83.70
4306;DHT22;2166;49.926;8.608;2023-02-01T00:35:43;5.40;83.70
4306;DHT22;2166;49.926;8.608;2023-02-01T00:38:11;5.40;83.80
4306;DHT22;2166;49.926;8.608;2023-02-01T00:40:39;5.40;83.90
4306;DHT22;2166;49.926;8.608;2023-02-01T00:43:08;5.30;84.00
4306;DHT22;2166;49.926;8.608;2023-02-01T00:45:37;5.30;84.00
4306;DHT22;2166;49.926;8.608;2023-02-01T00:48:05;5.30;84.00
4306;DHT22;2166;49.926;8.608;2023-02-01T00:50:33;5.30;84.10
4306;DHT22;2166;49.926;8.608;2023-02-01T00:53:04;5.30;84.10
4306;DHT22;2166;49.926;8.608;2023-02-01T00:55:32;5.30;84.20
4306;DHT22;2166;49.926;8.608;2023-02-01T00:58:00;5.30;84.10
4306;DHT22;2166;49.926;8.608;2023-02-01T01:00:28;5.30;84.00
4306;DHT22;2166;49.926;8.608;2023-02-01T01:02:56;5.20;84.10
4306;DHT22;2166;49.926;8.608;2023-02-01T01:05:24;5.20;84.10
4306;DHT22;2166;49.926;8.608;2023-02-01T01:07:54;5.30;84.40
4306;DHT22;2166;49.926;8.608;2023-02-01T01:10:32;5.30;84.20
4306;DHT22;2166;49.926;8.608;2023-02-01T01:13:02;5.30;84.20
4306;DHT22;2166;49.926;8.608;2023-02-01T01:15:53;5.30;84.10
4306;DHT22;2166;49.926;8.608;2023-02-01T01:18:31;5.30;84.10
4306;DHT22;2166;49.926;8.608;2023-02-01T01:21:01;5.30;84.00
4306;DHT22;2166;49.926;8.608;2023-02-01T01:23:32;5.30;84.00
4306;DHT22;2166;49.926;8.608;2023-02-01T01:26:06;5.30;83.90
4306;DHT22;2166;49.926;8.608;2023-02-01T01:28:34;5.30;83.90
4306;DHT22;2166;49.926;8.608;2023-02-01T01:31:03;5.40;83.90
4306;DHT22;2166;49.926;8.608;2023-02-01T01:33:32;5.40;83.90
4306;DHT22;2166;49.926;8.608;2023-02-01T01:36:04;5.40;83.90
4306;DHT22;2166;49.926;8.608;2023-02-01T01:38:37;5.40;83.90
4306;DHT22;2166;49.926;8.608;2023-02-01T01:41:06;5.50;83.90
4306;DHT22;2166;49.926;8.608;2023-02-01T01:43:50;5.40;83.90
4306;DHT22;2166;49.926;8.608;2023-02-01T01:46:21;5.40;84.00
4306;DHT22;2166;49.926;8.608;2023-02-01T01:48:51;5.40;84.00
4306;DHT22;2166;49.926;8.608;2023-02-01T01:51:22;5.40;84.00
4306;DHT22;2166;49.926;8.608;2023-02-01T01:53:53;5.40;84.00
4306;DHT22;2166;49.926;8.608;2023-02-01T01:56:25;5.40;84.10
4306;DHT22;2166;49.926;8.608;2023-02-01T01:58:55;5.40;84.10
4306;DHT22;2166;49.926;8.608;2023-02-01T02:01:24;5.40;84.20
4306;DHT22;2166;49.926;8.608;2023-02-01T02:03:52;5.40;84.30
4306;DHT22;2166;49.926;8.608;2023-02-01T02:06:24;5.40;84.30
4306;DHT22;2166;49.926;8.608;2023-02-01T02:08:56;5.50;84.30
4306;DHT22;2166;49.926;8.608;2023-02-01T02:11:27;5.50;84.30
4306;DHT22;2166;49.926;8.608;2023-02-01T02:13:55;5.50;84.30
4306;DHT22;2166;49.926;8.608;2023-02-01T02:22:05;5.40;84.40
4306;DHT22;2166;49.926;8.608;2023-02-01T02:27:36;5.30;84.70
4306;DHT22;2166;49.926;8.608;2023-02-01T02:35:37;5.40;84.80
4306;DHT22;2166;49.926;8.608;2023-02-01T02:38:13;5.50;84.80
4306;DHT22;2166;49.926;8.608;2023-02-01T02:40:46;5.50;84.70
4306;DHT22;2166;49.926;8.608;2023-02-01T02:43:18;5.50;84.70
4306;DHT22;2166;49.926;8.608;2023-02-01T02:46:08;5.60;84.60
4306;DHT22;2166;49.926;8.608;2023-02-01T02:49:00;5.60;84.60
4306;DHT22;2166;49.926;8.608;2023-02-01T02:51:32;5.70;84.60
4306;DHT22;2166;49.926;8.608;2023-02-01T02:54:21;5.80;84.60
4306;DHT22;2166;49.926;8.608;2023-02-01T02:57:09;5.90;84.40
4306;DHT22;2166;49.926;8.608;2023-02-01T02:59:57;6.10;84.50
4306;DHT22;2166;49.926;8.608;2023-02-01T03:02:44;6.10;84.30
4306;DHT22;2166;49.926;8.608;2023-02-01T03:05:32;6.10;84.00
4306;DHT22;2166;49.926;8.608;2023-02-01T03:08:03;6.00;83.80
4306;DHT22;2166;49.926;8.608;2023-02-01T03:10:33;5.90;83.80
4306;DHT22;2166;49.926;8.608;2023-02-01T03:13:04;5.70;83.90
4306;DHT22;2166;49.926;8.608;2023-02-01T03:15:34;5.70;84.20
4306;DHT22;2166;49.926;8.608;2023-02-01T03:18:05;5.60;84.30
4306;DHT22;2166;49.926;8.608;2023-02-01T03:20:36;5.60;84.40
4306;DHT22;2166;49.926;8.608;2023-02-01T03:23:07;5.60;84.50
4306;DHT22;2166;49.926;8.608;2023-02-01T03:25:43;5.60;84.60
4306;DHT22;2166;49.926;8.608;2023-02-01T03:28:12;5.60;84.60
4306;DHT22;2166;49.926;8.608;2023-02-01T03:30:42;5.60;84.60
4306;DHT22;2166;49.926;8.608;2023-02-01T03:33:13;5.60;84.70
4306;DHT22;2166;49.926;8.608;2023-02-01T03:35:51;5.60;84.70
4306;DHT22;2166;49.926;8.608;2023-02-01T03:38:28;5.60;84.70
4306;DHT22;2166;49.926;8.608;2023-02-01T03:41:00;5.60;84.70
4306;DHT22;2166;49.926;8.608;2023-02-01T03:43:33;5.60;84.70
4306;DHT22;2166;49.926;8.608;2023-02-01T03:46:03;5.50;84.70
4306;DHT22;2166;49.926;8.608;2023-02-01T04:23:22;5.60;84.70
4306;DHT22;2166;49.926;8.608;2023-02-01T04:25:51;5.50;84.70
4306;DHT22;2166;49.926;8.608;2023-02-01T04:28:21;5.50;84.80
4306;DHT22;2166;49.926;8.608;2023-02-01T04:30:51;5.60;84.80
4306;DHT22;2166;49.926;8.608;2023-02-01T04:33:22;5.50;84.80
4306;DHT22;2166;49.926;8.608;2023-02-01T04:35:50;5.50;84.90
4306;DHT22;2166;49.926;8.608;2023-02-01T04:38:19;5.60;84.90
4306;DHT22;2166;49.926;8.608;2023-02-01T04:40:52;5.60;84.90
4306;DHT22;2166;49.926;8.608;2023-02-01T04:43:20;5.50;84.80
4306;DHT22;2166;49.926;8.608;2023-02-01T04:45:50;5.50;84.90
4306;DHT22;2166;49.926;8.608;2023-02-01T04:48:19;5.50;84.90
4306;DHT22;2166;49.926;8.608;2023-02-01T04:50:51;5.50;84.80
4306;DHT22;2166;49.926;8.608;2023-02-01T04:53:20;5.60;84.80
4306;DHT22;2166;49.926;8.608;2023-02-01T04:55:50;5.60;84.80
4306;DHT22;2166;49.926;8.608;2023-02-01T04:58:21;5.50;84.80
4306;DHT22;2166;49.926;8.608;2023-02-01T05:00:50;5.50;84.70
4306;DHT22;2166;49.926;8.608;2023-02-01T05:03:19;5.50;84.70
4306;DHT22;2166;49.926;8.608;2023-02-01T05:05:47;5.60;84.60
4306;DHT22;2166;49.926;8.608;2023-02-01T05:08:16;5.60;84.50
4306;DHT22;2166;49.926;8.608;2023-02-01T05:10:44;5.60;84.40
4306;DHT22;2166;49.926;8.608;2023-02-01T05:13:14;5.60;84.40
4306;DHT22;2166;49.926;8.608;2023-02-01T05:16:01;5.60;84.30
4306;DHT22;2166;49.926;8.608;2023-02-01T05:18:30;5.60;84.30
4306;DHT22;2166;49.926;8.608;2023-02-01T05:20:58;5.50;84.20
4306;DHT22;2166;49.926;8.608;2023-02-01T05:23:29;5.50;84.10
4306;DHT22;2166;49.926;8.608;2023-02-01T05:25:59;5.50;84.10
4306;DHT22;2166;49.926;8.608;2023-02-01T05:28:29;5.50;84.10
4306;DHT22;2166;49.926;8.608;2023-02-01T05:30:58;5.40;84.10
4306;DHT22;2166;49.926;8.608;2023-02-01T05:33:27;5.40;84.00
4306;DHT22;2166;49.926;8.608;2023-02-01T05:35:59;5.40;84.00
4306;DHT22;2166;49.926;8.608;2023-02-01T05:38:32;5.40;84.00
4306;DHT22;2166;49.926;8.608;2023-02-01T05:41:01;5.40;84.00
4306;DHT22;2166;49.926;8.608;2023-02-01T05:43:32;5.40;83.90
4306;DHT22;2166;49.926;8.608;2023-02-01T05:46:00;5.40;83.90
4306;DHT22;2166;49.926;8.608;2023-02-01T05:48:29;5.40;83.80
4306;DHT22;2166;49.926;8.608;2023-02-01T05:51:00;5.40;83.70
4306;DHT22;2166;49.926;8.608;2023-02-01T05:53:28;5.40;83.70
4306;DHT22;2166;49.926;8.608;2023-02-01T05:55:57;5.40;84.20
4306;DHT22;2166;49.926;8.608;2023-02-01T05:58:25;5.40;84.10
4306;DHT22;2166;49.926;8.608;2023-02-01T06:00:56;5.40;84.00
4306;DHT22;2166;49.926;8.608;2023-02-01T06:03:27;5.40;84.00
4306;DHT22;2166;49.926;8.608;2023-02-01T06:05:56;5.40;83.90
4306;DHT22;2166;49.926;8.608;2023-02-01T06:08:24;5.40;83.80
4306;DHT22;2166;49.926;8.608;2023-02-01T06:10:57;5.40;83.80
4306;DHT22;2166;49.926;8.608;2023-02-01T06:13:27;5.40;83.70
4306;DHT22;2166;49.926;8.608;2023-02-01T06:15:57;5.40;83.70
4306;DHT22;2166;49.926;8.608;2023-02-01T06:18:25;5.30;83.70
4306;DHT22;2166;49.926;8.608;2023-02-01T06:20:54;5.30;83.80
4306;DHT22;2166;49.926;8.608;2023-02-01T06:23:23;5.30;83.80
4306;DHT22;2166;49.926;8.608;2023-02-01T06:25:51;5.20;83.80
4306;DHT22;2166;49.926;8.608;2023-02-01T06:28:20;5.20;83.80
4306;DHT22;2166;49.926;8.608;2023-02-01T06:30:50;5.20;83.80
4306;DHT22;2166;49.926;8.608;2023-02-01T06:33:20;5.20;83.90
4306;DHT22;2166;49.926;8.608;2023-02-01T06:35:48;5.20;83.80
4306;DHT22;2166;49.926;8.608;2023-02-01T06:38:18;5.20;83.80
4306;DHT22;2166;49.926;8.608;2023-02-01T06:40:51;5.20;83.80
4306;DHT22;2166;49.926;8.608;2023-02-01T06:43:20;5.10;83.80
4306;DHT22;2166;49.926;8.608;2023-02-01T06:45:49;5.10;83.90
4306;DHT22;2166;49.926;8.608;2023-02-01T06:48:17;5.00;84.00
4306;DHT22;2166;49.926;8.608;2023-02-01T06:50:48;4.90;84.00
4306;DHT22;2166;49.926;8.608;2023-02-01T06:53:17;4.90;83.90
4306;DHT22;2166;49.926;8.608;2023-02-01T06:55:52;4.80;84.00
4306;DHT22;2166;49.926;8.608;2023-02-01T06:58:20;4.80;84.00
4306;DHT22;2166;49.926;8.608;2023-02-01T07:00:48;4.70;84.00
4306;DHT22;2166;49.926;8.608;2023-02-01T07:03:17;4.70;83.90
4306;DHT22;2166;49.926;8.608;2023-02-01T07:05:49;4.70;83.90
4306;DHT22;2166;49.926;8.608;2023-02-01T07:08:17;4.70;83.80
4306;DHT22;2166;49.926;8.608;2023-02-01T07:10:47;4.70;83.90
4306;DHT22;2166;49.926;8.608;2023-02-01T07:15:43;4.70;83.60
4306;DHT22;2166;49.926;8.608;2023-02-01T07:18:13;4.70;83.60
4306;DHT22;2166;49.926;8.608;2023-02-01T07:20:42;4.70;83.60
4306;DHT22;2166;49.926;8.608;2023-02-01T07:23:12;4.60;83.50
4306;DHT22;2166;49.926;8.608;2023-02-01T07:25:41;4.60;83.60
4306;DHT22;2166;49.926;8.608;2023-02-01T07:28:14;4.60;83.60
4306;DHT22;2166;49.926;8.608;2023-02-01T07:30:43;4.60;83.70
4306;DHT22;2166;49.926;8.608;2023-02-01T07:33:19;4.60;83.90
4306;DHT22;2166;49.926;8.608;2023-02-01T07:35:48;4.70;83.80
4306;DHT22;2166;49.926;8.608;2023-02-01T07:40:58;4.90;83.70
4306;DHT22;2166;49.926;8.608;2023-02-01T07:43:28;5.10;83.60
4306;DHT22;2166;49.926;8.608;2023-02-01T07:45:57;5.30;83.50
4306;DHT22;2166;49.926;8.608;2023-02-01T07:48:28;5.60;83.20
4306;DHT22;2166;49.926;8.608;2023-02-01T07:50:57;5.90;82.80
4306;DHT22;2166;49.926;8.608;2023-02-01T07:53:26;6.20;82.30
4306;DHT22;2166;49.926;8.608;2023-02-01T07:55:59;6.60;81.70
4306;DHT22;2166;49.926;8.608;2023-02-01T07:58:29;6.80;81.00
4306;DHT22;2166;49.926;8.608;2023-02-01T08:01:02;6.90;80.40
4306;DHT22;2166;49.926;8.608;2023-02-01T08:06:33;7.10;80.30
4306;DHT22;2166;49.926;8.608;2023-02-01T08:09:08;7.50;80.10
4306;DHT22;2166;49.926;8.608;2023-02-01T08:11:50;7.80;79.50
4306;DHT22;2166;49.926;8.608;2023-02-01T08:14:19;7.90;78.60
4306;DHT22;2166;49.926;8.608;2023-02-01T08:16:49;8.00;78.40
4306;DHT22;2166;49.926;8.608;2023-02-01T08:36:54;8.30;78.10
4306;DHT22;2166;49.926;8.608;2023-02-01T08:39:28;8.40;77.50
4306;DHT22;2166;49.926;8.608;2023-02-01T08:41:57;8.90;77.10
4306;DHT22;2166;49.926;8.608;2023-02-01T08:47:22;8.80;76.10
4306;DHT22;2166;49.926;8.608;2023-02-01T08:49:53;8.80;76.30
4306;DHT22;2166;49.926;8.608;2023-02-01T10:11:02;7.30;75.30
4306;DHT22;2166;49.926;8.608;2023-02-01T10:28:06;7.50;75.20
4306;DHT22;2166;49.926;8.608;2023-02-01T10:54:00;7.40;75.50
4306;DHT22;2166;49.926;8.608;2023-02-01T10:56:57;7.40;75.70
4306;DHT22;2166;49.926;8.608;2023-02-01T11:22:29;7.40;74.70
4306;DHT22;2166;49.926;8.608;2023-02-01T12:00:01;7.40;75.10
4306;DHT22;2166;49.926;8.608;2023-02-01T12:52:48;7.70;74.40
4306;DHT22;2166;49.926;8.608;2023-02-01T12:55:18;7.80;74.60
4306;DHT22;2166;49.926;8.608;2023-02-01T13:03:50;7.80;74.40
4306;DHT22;2166;49.926;8.608;2023-02-01T13:06:26;7.80;74.20
4306;DHT22;2166;49.926;8.608;2023-02-01T13:09:00;7.70;73.90
4306;DHT22;2166;49.926;8.608;2023-02-01T13:11:31;7.80;74.20
4306;DHT22;2166;49.926;8.608;2023-02-01T13:14:02;7.70;74.10
4306;DHT22;2166;49.926;8.608;2023-02-01T13:19:28;7.60;74.30
4306;DHT22;2166;49.926;8.608;2023-02-01T13:22:00;7.60;74.40
4306;DHT22;2166;49.926;8.608;2023-02-01T13:24:37;7.60;74.20
4306;DHT22;2166;49.926;8.608;2023-02-01T13:30:15;7.60;74.30
4306;DHT22;2166;49.926;8.608;2023-02-01T13:33:14;7.60;74.80
4306;DHT22;2166;49.926;8.608;2023-02-01T13:43:57;7.80;74.60
4306;DHT22;2166;49.926;8.608;2023-02-01T13:46:30;7.80;74.80
4306;DHT22;2166;49.926;8.608;2023-02-01T13:49:07;7.70;74.30
4306;DHT22;2166;49.926;8.608;2023-02-01T13:52:04;7.60;74.20
4306;DHT22;2166;49.926;8.608;2023-02-01T13:54:34;7.60;74.50
4306;DHT22;2166;49.926;8.608;2023-02-01T14:08:37;7.70;74.30
4306;DHT22;2166;49.926;8.608;2023-02-01T14:11:07;7.80;74.40
4306;DHT22;2166;49.926;8.608;2023-02-01T14:13:56;7.70;74.50
4306;DHT22;2166;49.926;8.608;2023-02-01T14:22:34;7.70;74.40
4306;DHT22;2166;49.926;8.608;2023-02-01T14:25:14;7.80;74.60
4306;DHT22;2166;49.926;8.608;2023-02-01T14:27:58;7.70;74.40
4306;DHT22;2166;49.926;8.608;2023-02-01T14:30:32;7.70;74.60
4306;DHT22;2166;49.926;8.608;2023-02-01T14:39:03;7.80;74.20
4306;DHT22;2166;49.926;8.608;2023-02-01T14:41:34;7.80;74.30
4306;DHT22;2166;49.926;8.608;2023-02-01T14:49:28;7.80;74.20
4306;DHT22;2166;49.926;8.608;2023-02-01T14:57:28;8.00;73.70
4306;DHT22;2166;49.926;8.608;2023-02-01T14:59:59;8.00;74.00
4306;DHT22;2166;49.926;8.608;2023-02-01T15:02:38;8.00;73.90
4306;DHT22;2166;49.926;8.608;2023-02-01T15:05:20;8.00;74.00
4306;DHT22;2166;49.926;8.608;2023-02-01T15:07:51;8.00;74.00
4306;DHT22;2166;49.926;8.608;2023-02-01T15:20:50;7.80;74.20
4306;DHT22;2166;49.926;8.608;2023-02-01T15:23:49;7.90;74.20
4306;DHT22;2166;49.926;8.608;2023-02-01T15:32:14;8.30;73.60
4306;DHT22;2166;49.926;8.608;2023-02-01T15:34:57;8.30;73.70
4306;DHT22;2166;49.926;8.608;2023-02-01T15:37:28;8.30;73.60
4306;DHT22;2166;49.926;8.608;2023-02-01T15:40:05;8.20;73.80
4306;DHT22;2166;49.926;8.608;2023-02-01T15:42:35;8.10;73.90
4306;DHT22;2166;49.926;8.608;2023-02-01T15:45:13;8.00;73.90
4306;DHT22;2166;49.926;8.608;2023-02-01T15:47:49;7.90;73.90
4306;DHT22;2166;49.926;8.608;2023-02-01T15:50:19;7.90;74.00
4306;DHT22;2166;49.926;8.608;2023-02-01T15:52:52;7.90;74.00
4306;DHT22;2166;49.926;8.608;2023-02-01T16:00:46;7.90;74.00
4306;DHT22;2166;49.926;8.608;2023-02-01T16:03:28;7.90;74.20
4306;DHT22;2166;49.926;8.608;2023-02-01T16:15:20;7.80;74.10
4306;DHT22;2166;49.926;8.608;2023-02-01T16:20:25;7.80;74.40
4306;DHT22;2166;49.926;8.608;2023-02-01T16:25:23;7.70;74.20
4306;DHT22;2166;49.926;8.608;2023-02-01T16:30:26;7.70;74.30
4306;DHT22;2166;49.926;8.608;2023-02-01T16:33:09;7.80;74.60
4306;DHT22;2166;49.926;8.608;2023-02-01T16:35:58;7.80;74.20
4306;DHT22;2166;49.926;8.608;2023-02-01T16:44:12;7.80;74.50
4306;DHT22;2166;49.926;8.608;2023-02-01T16:46:47;7.80;74.40
4306;DHT22;2166;49.926;8.608;2023-02-01T16:49:17;7.80;74.40
4306;DHT22;2166;49.926;8.608;2023-02-01T16:54:30;7.70;74.40
4306;DHT22;2166;49.926;8.608;2023-02-01T16:59:42;7.50;74.60
4306;DHT22;2166;49.926;8.608;2023-02-01T17:02:16;7.40;74.80
4306;DHT22;2166;49.926;8.608;2023-02-01T17:04:47;7.20;74.90
4306;DHT22;2166;49.926;8.608;2023-02-01T17:07:16;7.10;75.10
4306;DHT22;2166;49.926;8.608;2023-02-01T17:09:47;7.10;75.30
4306;DHT22;2166;49.926;8.608;2023-02-01T17:12:17;7.00;75.50
4306;DHT22;2166;49.926;8.608;2023-02-01T17:15:05;6.90;75.50
4306;DHT22;2166;49.926;8.608;2023-02-01T17:17:36;6.80;75.70
4306;DHT22;2166;49.926;8.608;2023-02-01T17:20:15;6.80;75.90
4306;DHT22;2166;49.926;8.608;2023-02-01T17:22:45;6.80;76.00
4306;DHT22;2166;49.926;8.608;2023-02-01T17:25:17;6.80;75.90
4306;DHT22;2166;49.926;8.608;2023-02-01T17:27:47;6.80;76.00
4306;DHT22;2166;49.926;8.608;2023-02-01T17:30:16;6.70;76.10
4306;DHT22;2166;49.926;8.608;2023-02-01T17:32:49;6.70;76.30
4306;DHT22;2166;49.926;8.608;2023-02-01T17:35:18;6.60;76.50
4306;DHT22;2166;49.926;8.608;2023-02-01T17:40:47;6.60;76.40
4306;DHT22;2166;49.926;8.608;2023-02-01T17:43:19;6.60;76.50
4306;DHT22;2166;49.926;8.608;2023-02-01T17:45:49;6.60;76.50
4306;DHT22;2166;49.926;8.608;2023-02-01T17:48:20;6.60;76.60
4306;DHT22;2166;49.926;8.608;2023-02-01T17:50:50;6.70;76.40
4306;DHT22;2166;49.926;8.608;2023-02-01T17:53:46;6.70;76.40
4306;DHT22;2166;49.926;8.608;2023-02-01T17:56:18;6.70;76.40
4306;DHT22;2166;49.926;8.608;2023-02-01T17:59:16;6.70;76.40
4306;DHT22;2166;49.926;8.608;2023-02-01T18:01:46;6.70;76.30
4306;DHT22;2166;49.926;8.608;2023-02-01T18:04:17;6.70;76.40
4306;DHT22;2166;49.926;8.608;2023-02-01T18:09:19;6.70;76.40
4306;DHT22;2166;49.926;8.608;2023-02-01T18:14:38;6.70;76.40
4306;DHT22;2166;49.926;8.608;2023-02-01T18:17:07;6.70;76.40
4306;DHT22;2166;49.926;8.608;2023-02-01T18:22:25;6.60;76.60
4306;DHT22;2166;49.926;8.608;2023-02-01T18:24:56;6.70;76.20
4306;DHT22;2166;49.926;8.608;2023-02-01T18:27:25;6.70;76.20
4306;DHT22;2166;49.926;8.608;2023-02-01T18:30:00;6.70;76.20
4306;DHT22;2166;49.926;8.608;2023-02-01T18:32:30;6.80;76.20
4306;DHT22;2166;49.926;8.608;2023-02-01T18:35:14;6.80;76.30
4306;DHT22;2166;49.926;8.608;2023-02-01T18:37:46;6.70;76.40
4306;DHT22;2166;49.926;8.608;2023-02-01T18:43:09;6.60;76.70
4306;DHT22;2166;49.926;8.608;2023-02-01T18:45:41;6.70;76.60
4306;DHT22;2166;49.926;8.608;2023-02-01T18:53:50;6.70;76.30
4306;DHT22;2166;49.926;8.608;2023-02-01T18:56:21;6.70;76.30
4306;DHT22;2166;49.926;8.608;2023-02-01T18:58:54;6.80;76.30
4306;DHT22;2166;49.926;8.608;2023-02-01T19:01:25;6.80;76.20
4306;DHT22;2166;49.926;8.608;2023-02-01T19:06:56;6.80;76.30
4306;DHT22;2166;49.926;8.608;2023-02-01T19:17:49;6.70;76.40
4306;DHT22;2166;49.926;8.608;2023-02-01T19:20:24;6.70;76.40
4306;DHT22;2166;49.926;8.608;2023-02-01T19:22:53;6.80;76.50
4306;DHT22;2166;49.926;8.608;2023-02-01T19:25:32;6.70;76.60
4306;DHT22;2166;49.926;8.608;2023-02-01T19:30:37;6.70;76.60
4306;DHT22;2166;49.926;8.608;2023-02-01T19:33:08;6.70;76.50
4306;DHT22;2166;49.926;8.608;2023-02-01T19:35:37;6.70;76.60
4306;DHT22;2166;49.926;8.608;2023-02-01T19:38:06;6.70;76.80
4306;DHT22;2166;49.926;8.608;2023-02-01T19:40:35;6.70;76.90
4306;DHT22;2166;49.926;8.608;2023-02-01T19:48:44;6.80;76.80
4306;DHT22;2166;49.926;8.608;2023-02-01T19:53:49;6.70;77.40
4306;DHT22;2166;49.926;8.608;2023-02-01T19:56:20;6.50;77.80
4306;DHT22;2166;49.926;8.608;2023-02-01T19:58:50;6.40;78.00
4306;DHT22;2166;49.926;8.608;2023-02-01T20:04:21;6.50;77.90
4306;DHT22;2166;49.926;8.608;2023-02-01T20:09:43;6.60;77.80
4306;DHT22;2166;49.926;8.608;2023-02-01T20:12:13;6.60;77.50
4306;DHT22;2166;49.926;8.608;2023-02-01T20:14:43;6.70;77.50
4306;DHT22;2166;49.926;8.608;2023-02-01T20:17:13;6.80;77.30
4306;DHT22;2166;49.926;8.608;2023-02-01T20:19:44;6.80;77.30
4306;DHT22;2166;49.926;8.608;2023-02-01T20:22:12;6.80;77.10
4306;DHT22;2166;49.926;8.608;2023-02-01T20:35:48;6.90;77.10
4306;DHT22;2166;49.926;8.608;2023-02-01T20:38:17;6.90;77.10
4306;DHT22;2166;49.926;8.608;2023-02-01T20:40:46;7.00;77.00
4306;DHT22;2166;49.926;8.608;2023-02-01T20:46:16;7.00;77.10
4306;DHT22;2166;49.926;8.608;2023-02-01T20:48:47;7.00;77.30
4306;DHT22;2166;49.926;8.608;2023-02-01T20:51:48;7.00;77.20
4306;DHT22;2166;49.926;8.608;2023-02-01T20:57:07;7.00;77.10
4306;DHT22;2166;49.926;8.608;2023-02-01T20:59:36;7.00;77.20
4306;DHT22;2166;49.926;8.608;2023-02-01T21:07:49;7.00;77.30
4306;DHT22;2166;49.926;8.608;2023-02-01T21:10:19;7.00;77.20
4306;DHT22;2166;49.926;8.608;2023-02-01T21:12:49;7.00;77.20
4306;DHT22;2166;49.926;8.608;2023-02-01T21:21:20;7.10;76.90
4306;DHT22;2166;49.926;8.608;2023-02-01T21:30:10;7.00;77.00
4306;DHT22;2166;49.926;8.608;2023-02-01T21:32:38;7.00;77.00
4306;DHT22;2166;49.926;8.608;2023-02-01T21:35:08;7.10;77.00
4306;DHT22;2166;49.926;8.608;2023-02-01T21:48:17;7.00;77.00
4306;DHT22;2166;49.926;8.608;2023-02-01T21:50:46;6.70;77.80
4306;DHT22;2166;49.926;8.608;2023-02-01T21:59:36;6.70;77.90
4306;DHT22;2166;49.926;8.608;2023-02-01T22:02:09;6.70;77.90
4306;DHT22;2166;49.926;8.608;2023-02-01T22:07:24;6.70;77.90
4306;DHT22;2166;49.926;8.608;2023-02-01T22:15:29;7.00;77.40
4306;DHT22;2166;49.926;8.608;2023-02-01T22:17:58;7.00;77.20
4306;DHT22;2166;49.926;8.608;2023-02-01T22:21:00;7.10;77.10
4306;DHT22;2166;49.926;8.608;2023-02-01T22:23:35;7.10;76.90
4306;DHT22;2166;49.926;8.608;2023-02-01T22:29:14;7.10;77.00
4306;DHT22;2166;49.926;8.608;2023-02-01T22:31:49;7.10;77.10
4306;DHT22;2166;49.926;8.608;2023-02-01T22:34:20;7.20;77.10
4306;DHT22;2166;49.926;8.608;2023-02-01T22:45:09;7.20;77.20
4306;DHT22;2166;49.926;8.608;2023-02-01T22:47:56;7.20;77.20
4306;DHT22;2166;49.926;8.608;2023-02-01T22:50:24;7.20;77.20
4306;DHT22;2166;49.926;8.608;2023-02-01T22:52:57;7.20;77.30
4306;DHT22;2166;49.926;8.608;2023-02-01T22:55:27;7.20;77.20
4306;DHT22;2166;49.926;8.608;2023-02-01T22:58:00;7.20;77.20
4306;DHT22;2166;49.926;8.608;2023-02-01T23:03:39;7.20;77.30
4306;DHT22;2166;49.926;8.608;2023-02-01T23:06:14;7.20;77.50
4306;DHT22;2166;49.926;8.608;2023-02-01T23:08:48;7.20;77.60
4306;DHT22;2166;49.926;8.608;2023-02-01T23:11:34;7.20;77.60
4306;DHT22;2166;49.926;8.608;2023-02-01T23:16:38;7.10;77.80
4306;DHT22;2166;49.926;8.608;2023-02-01T23:22:07;7.10;78.20
4306;DHT22;2166;49.926;8.608;2023-02-01T23:24:35;7.10;78.60
4306;DHT22;2166;49.926;8.608;2023-02-01T23:27:06;7.10;78.70
4306;DHT22;2166;49.926;8.608;2023-02-01T23:29:34;7.00;79.20
4306;DHT22;2166;49.926;8.608;2023-02-01T23:32:03;6.90;79.50
4306;DHT22;2166;49.926;8.608;2023-02-01T23:34:32;6.90;79.80
4306;DHT22;2166;49.926;8.608;2023-02-01T23:37:00;6.90;79.80
4306;DHT22;2166;49.926;8.608;2023-02-01T23:39:46;6.80;80.00
4306;DHT22;2166;49.926;8.608;2023-02-01T23:42:35;6.80;80.20
4306;DHT22;2166;49.926;8.608;2023-02-01T23:45:04;6.70;80.30
4306;DHT22;2166;49.926;8.608;2023-02-01T23:47:37;6.70;80.20
4306;DHT22;2166;49.926;8.608;2023-02-01T23:50:10;6.70;80.30
4306;DHT22;2166;49.926;8.608;2023-02-01T23:52:39;6.80;80.30
4306;DHT22;2166;49.926;8.608;2023-02-01T23:55:09;6.80;80.40
4306;DHT22;2166;49.926;8.608;2023-02-01T23:57:37;6.80;80.60
